Time;durP1;ratioP1;P1;durP2;ratioP2;P2;SDS_P1;SDS_P2;PMS_P1;PMS_P2;Temp;Humidity;BMP_temperature;BMP_pressure;BME280_temperature;BME280_humidity;BME280_pressure;Samples;Min_cycle;Max_cycle;Signal;HPM_P1;HPM_P2
2020/12/19 00:00:31;;;;;;;52.13;36.50;;;;;;;3.06;100.00;101532.41;3598475;81;34850;-74
2020/12/19 00:05:32;;;;;;;47.27;33.87;;;;;;;2.94;100.00;101539.34;3597269;82;35349;-71
2020/12/19 00:10:33;;;;;;;44.03;29.87;;;;;;;3.00;100.00;101539.39;3597253;82;35376;-71
2020/12/19 00:15:34;;;;;;;53.40;37.67;;;;;;;3.19;100.00;101538.23;3597033;82;34830;-74
2020/12/19 00:20:34;;;;;;;44.37;31.60;;;;;;;3.05;100.00;101522.31;3597242;82;32060;-74
2020/12/19 00:25:35;;;;;;;49.50;32.80;;;;;;;3.05;100.00;101522.31;3597214;82;25818;-74
2020/12/19 00:30:38;;;;;;;39.07;28.97;;;;;;;3.10;100.00;101528.50;3597215;82;26091;-76
2020/12/19 00:35:39;;;;;;;44.90;28.43;;;;;;;3.06;100.00;101525.82;3596532;82;31314;-75
2020/12/19 00:40:40;;;;;;;37.80;27.03;;;;;;;3.12;100.00;101519.28;3597261;82;25857;-74
2020/12/19 00:45:41;;;;;;;39.90;29.07;;;;;;;3.08;100.00;101522.33;3597100;82;35430;-74
2020/12/19 00:50:42;;;;;;;43.17;30.93;;;;;;;3.04;100.00;101519.23;3597221;82;27309;-74
2020/12/19 00:55:44;;;;;;;43.47;30.53;;;;;;;3.01;100.00;101521.41;3597171;82;26307;-70
2020/12/19 01:00:44;;;;;;;42.37;28.37;;;;;;;2.92;100.00;101522.63;3619764;82;26235;-70
2020/12/19 01:05:45;;;;;;;38.60;27.20;;;;;;;2.86;100.00;101512.91;3621883;81;25695;-70
2020/12/19 01:10:46;;;;;;;40.93;29.17;;;;;;;2.94;100.00;101511.68;3622166;82;25820;-71
2020/12/19 01:15:47;;;;;;;39.77;28.97;;;;;;;2.96;100.00;101497.20;3622417;81;26043;-74
2020/12/19 01:20:48;;;;;;;45.80;33.30;;;;;;;2.86;100.00;101502.37;3621896;81;25964;-74
2020/12/19 01:25:49;;;;;;;53.37;35.13;;;;;;;2.83;100.00;101502.36;3621657;82;25869;-71
2020/12/19 01:30:50;;;;;;;41.63;30.03;;;;;;;2.65;100.00;101501.73;3622029;82;33043;-71
2020/12/19 01:35:51;;;;;;;40.97;30.47;;;;;;;2.47;100.00;101501.52;3621839;81;32559;-74
2020/12/19 01:40:55;;;;;;;45.07;32.57;;;;;;;2.43;100.00;101507.63;3621852;82;27765;-75
2020/12/19 01:45:58;;;;;;;51.90;36.70;;;;;;;2.20;100.00;101504.28;3622476;82;33087;-74
2020/12/19 01:51:00;;;;;;;45.17;32.73;;;;;;;1.98;100.00;101501.82;3622343;81;41706;-69
2020/12/19 01:56:01;;;;;;;44.10;30.97;;;;;;;1.74;100.00;101496.67;3621678;82;27798;-75
2020/12/19 02:01:03;;;;;;;45.37;31.17;;;;;;;1.63;100.00;101483.37;3599538;81;29907;-74
2020/12/19 02:06:07;;;;;;;45.43;32.10;;;;;;;1.93;100.00;101491.68;3597022;82;27312;-75
2020/12/19 02:11:07;;;;;;;40.77;29.10;;;;;;;1.73;100.00;101487.91;3597073;82;33025;-76
2020/12/19 02:16:08;;;;;;;42.77;31.10;;;;;;;1.84;100.00;101488.47;3597025;82;27725;-75
2020/12/19 02:21:10;;;;;;;43.97;31.07;;;;;;;1.94;100.00;101493.45;3597082;82;25839;-75
2020/12/19 02:26:11;;;;;;;42.60;29.83;;;;;;;1.78;100.00;101490.61;3596912;82;26271;-75
2020/12/19 02:31:11;;;;;;;42.80;28.73;;;;;;;1.55;100.00;101490.28;3597009;82;26269;-74
2020/12/19 02:36:12;;;;;;;40.40;28.27;;;;;;;1.63;100.00;101491.25;3597042;82;25794;-74
2020/12/19 02:41:14;;;;;;;42.93;29.90;;;;;;;1.61;100.00;101486.43;3597056;82;25838;-75
2020/12/19 02:46:15;;;;;;;44.77;30.73;;;;;;;1.69;100.00;101493.97;3596940;82;25856;-75
2020/12/19 02:51:16;;;;;;;42.85;28.75;;;;;;;1.81;100.00;101488.45;3596789;82;25839;-74
2020/12/19 02:56:17;;;;;;;39.03;29.40;;;;;;;1.69;100.00;101487.84;3597010;82;25794;-75
2020/12/19 03:01:18;;;;;;;35.30;27.50;;;;;;;1.57;100.00;101483.28;3573766;81;26150;-75
2020/12/19 03:06:19;;;;;;;42.90;27.73;;;;;;;1.65;100.00;101484.73;3570677;83;25757;-75
2020/12/19 03:11:20;;;;;;;40.13;29.63;;;;;;;1.66;100.00;101483.84;3570483;83;25832;-74
2020/12/19 03:16:21;;;;;;;38.40;27.87;;;;;;;1.55;100.00;101478.46;3570757;82;25832;-74
2020/12/19 03:21:22;;;;;;;36.53;26.00;;;;;;;1.45;100.00;101481.80;3570448;83;28498;-75
2020/12/19 03:26:23;;;;;;;46.00;30.90;;;;;;;1.25;100.00;101479.75;3570913;83;26103;-74
2020/12/19 03:31:25;;;;;;;45.47;31.37;;;;;;;1.19;100.00;101478.34;3570781;82;25764;-75
2020/12/19 03:36:27;;;;;;;47.73;32.73;;;;;;;1.24;100.00;101475.35;3570786;83;25844;-74
2020/12/19 03:41:27;;;;;;;44.73;31.20;;;;;;;1.24;100.00;101471.41;3570731;83;27634;-74
2020/12/19 03:46:28;;;;;;;46.27;31.67;;;;;;;1.22;100.00;101463.52;3570734;83;25773;-74
2020/12/19 03:51:29;;;;;;;40.87;29.80;;;;;;;1.22;100.00;101462.62;3570773;83;25721;-74
2020/12/19 03:56:30;;;;;;;45.13;31.87;;;;;;;1.18;100.00;101458.19;3570722;82;25722;-74
2020/12/19 04:01:31;;;;;;;46.87;33.37;;;;;;;1.05;100.00;101453.16;3613992;81;26122;-74
2020/12/19 04:06:32;;;;;;;47.37;33.83;;;;;;;1.14;100.00;101448.06;3621830;82;25783;-75
2020/12/19 04:11:32;;;;;;;51.23;34.43;;;;;;;1.26;100.00;101440.81;3621936;82;33182;-74
2020/12/19 04:16:33;;;;;;;45.73;33.73;;;;;;;1.40;100.00;101441.90;3621840;82;33236;-75
2020/12/19 04:21:34;;;;;;;49.97;34.97;;;;;;;1.35;100.00;101442.23;3622237;81;33225;-75
2020/12/19 04:26:35;;;;;;;51.73;36.13;;;;;;;1.33;100.00;101440.05;3621894;81;25800;-74
2020/12/19 04:31:36;;;;;;;47.40;33.60;;;;;;;1.25;100.00;101432.02;3621837;82;25792;-73
2020/12/19 04:36:37;;;;;;;52.10;35.77;;;;;;;1.29;100.00;101431.64;3621841;81;25861;-74
2020/12/19 04:41:38;;;;;;;47.23;33.63;;;;;;;1.26;100.00;101439.05;3621806;81;25775;-75
2020/12/19 04:46:43;;;;;;;47.98;33.65;;;;;;;1.23;100.00;101435.49;3621904;82;26246;-75
2020/12/19 04:51:45;;;;;;;47.55;33.25;;;;;;;1.06;100.00;101426.91;3621829;81;26074;-75
2020/12/19 04:56:46;;;;;;;48.43;33.33;;;;;;;0.90;100.00;101431.05;3621731;82;33710;-75
2020/12/19 05:01:47;;;;;;;40.47;30.30;;;;;;;0.84;100.00;101432.26;3621650;80;25842;-74
2020/12/19 05:06:48;;;;;;;41.97;29.90;;;;;;;0.78;100.00;101434.34;3621918;81;25759;-74
2020/12/19 05:11:50;;;;;;;38.23;28.47;;;;;;;0.77;100.00;101429.08;3621926;81;25783;-75
2020/12/19 05:16:51;;;;;;;41.00;29.47;;;;;;;0.79;100.00;101441.36;3621787;81;25823;-74
2020/12/19 05:21:55;;;;;;;39.63;28.73;;;;;;;0.55;100.00;101433.95;3621970;82;25762;-74
2020/12/19 05:26:58;;;;;;;34.83;25.53;;;;;;;0.46;100.00;101438.61;3620163;80;31570;-75
2020/12/19 05:32:00;;;;;;;38.23;25.70;;;;;;;0.40;100.00;101433.25;3621683;82;33248;-75
2020/12/19 05:37:01;;;;;;;35.57;25.13;;;;;;;0.32;100.00;101437.47;3621737;81;33210;-74
2020/12/19 05:42:02;;;;;;;36.80;25.73;;;;;;;0.44;100.00;101432.88;3622135;82;25799;-75
2020/12/19 05:47:08;;;;;;;35.50;25.97;;;;;;;0.33;100.00;101427.44;3622486;81;25813;-75
2020/12/19 05:52:10;;;;;;;37.80;26.30;;;;;;;0.47;100.00;101431.20;3622591;82;33237;-70
2020/12/19 05:57:14;;;;;;;34.27;25.20;;;;;;;0.32;100.00;101436.16;3621612;81;25771;-71
2020/12/19 06:02:16;;;;;;;34.10;24.50;;;;;;;0.31;100.00;101435.28;3600933;81;33137;-70
2020/12/19 06:07:18;;;;;;;34.93;25.87;;;;;;;0.27;100.00;101441.75;3596978;82;33172;-75
2020/12/19 06:12:24;;;;;;;36.07;25.23;;;;;;;0.21;100.00;101435.08;3596935;82;31890;-74
2020/12/19 06:17:34;;;;;;;36.50;24.50;;;;;;;0.27;100.00;101441.31;3595721;82;33137;-74
2020/12/19 06:22:36;;;;;;;32.67;23.47;;;;;;;0.11;100.00;101433.98;3589107;82;33597;-73
2020/12/19 06:27:39;;;;;;;35.47;24.10;;;;;;;0.08;100.00;101437.88;3564884;82;25846;-74
2020/12/19 06:32:40;;;;;;;33.87;23.13;;;;;;;0.00;100.00;101446.91;3596199;82;33693;-75
2020/12/19 06:37:44;;;;;;;33.73;23.27;;;;;;;0.02;100.00;101449.12;3596343;82;25870;-71
2020/12/19 06:42:47;;;;;;;33.27;23.10;;;;;;;-0.01;100.00;101449.07;3596268;82;32426;-70
2020/12/19 06:47:50;;;;;;;34.37;24.20;;;;;;;0.21;100.00;101456.06;3596295;82;33259;-71
2020/12/19 06:52:56;;;;;;;33.97;23.77;;;;;;;0.13;100.00;101458.52;3596248;82;31781;-70
2020/12/19 06:57:59;;;;;;;32.33;23.80;;;;;;;0.07;100.00;101463.63;3596275;82;32961;-71
2020/12/19 07:03:02;;;;;;;32.30;23.30;;;;;;;0.10;100.00;101465.89;3567313;80;29458;-72
2020/12/19 07:08:21;;;;;;;32.80;23.90;;;;;;;0.17;100.00;101467.33;3570196;81;27745;-71
2020/12/19 07:13:22;;;;;;;35.13;25.20;;;;;;;0.19;100.00;101474.80;3617204;81;32560;-74
2020/12/19 07:18:37;;;;;;;32.77;25.00;;;;;;;0.22;100.00;101474.84;3582565;81;25793;-75
2020/12/19 07:23:39;;;;;;;38.83;26.57;;;;;;;0.32;100.00;101482.06;3603905;81;33277;-74
2020/12/19 07:28:40;;;;;;;36.43;25.73;;;;;;;0.27;100.00;101473.22;3577931;81;33280;-71
2020/12/19 07:33:45;;;;;;;34.93;26.07;;;;;;;0.31;100.00;101475.94;3566242;82;25967;-70
2020/12/19 07:38:47;;;;;;;38.93;26.87;;;;;;;0.18;100.00;101478.27;3596447;81;26273;-71
2020/12/19 07:43:48;;;;;;;36.07;24.83;;;;;;;0.24;100.00;101481.02;3596107;81;32804;-75
2020/12/19 07:48:55;;;;;;;37.83;27.00;;;;;;;0.22;100.00;101482.30;3590593;81;25736;-75
2020/12/19 07:53:56;;;;;;;38.97;25.73;;;;;;;0.18;100.00;101483.52;3543849;82;33194;-75
2020/12/19 07:58:59;;;;;;;42.93;26.33;;;;;;;0.11;100.00;101482.09;3532789;81;26231;-73
2020/12/19 08:04:00;;;;;;;40.43;27.37;;;;;;;0.03;100.00;101484.10;3555288;82;33285;-75
2020/12/19 08:09:01;;;;;;;48.10;30.63;;;;;;;0.01;100.00;101481.86;3556090;82;25917;-76
2020/12/19 08:14:02;;;;;;;40.53;26.07;;;;;;;-0.06;100.00;101475.59;3539029;82;25795;-75
2020/12/19 08:19:05;;;;;;;46.30;28.07;;;;;;;-0.09;100.00;101483.41;3533787;82;25892;-74
2020/12/19 08:24:06;;;;;;;42.90;26.57;;;;;;;-0.22;100.00;101479.22;3544871;82;31928;-77
2020/12/19 08:29:08;;;;;;;37.93;27.03;;;;;;;-0.18;100.00;101478.86;3556542;82;25904;-76
2020/12/19 08:34:12;;;;;;;38.27;25.70;;;;;;;-0.18;100.00;101473.19;3530292;84;30344;-72
2020/12/19 08:39:16;;;;;;;46.33;28.70;;;;;;;-0.02;100.00;101472.20;3556225;82;33197;-72
2020/12/19 08:44:26;;;;;;;37.67;26.53;;;;;;;-0.10;100.00;101469.84;3517258;84;33145;-71
2020/12/19 08:49:27;;;;;;;33.37;21.40;;;;;;;-0.14;100.00;101474.13;3516250;84;33183;-71
2020/12/19 08:54:28;;;;;;;42.07;27.63;;;;;;;-0.23;100.00;101484.00;3514008;84;25802;-70
2020/12/19 08:59:29;;;;;;;38.55;24.35;;;;;;;-0.15;100.00;101480.66;3512684;83;26222;-71
2020/12/19 09:04:30;;;;;;;37.00;25.30;;;;;;;-0.13;100.00;101477.22;3513865;84;26180;-72
2020/12/19 09:09:31;;;;;;;33.87;22.60;;;;;;;-0.17;100.00;101474.05;3514369;84;25940;-75
2020/12/19 09:14:32;;;;;;;43.70;26.43;;;;;;;-0.18;100.00;101465.76;3514547;84;25966;-75
2020/12/19 09:19:33;;;;;;;42.30;28.47;;;;;;;0.04;100.00;101463.56;3515205;84;26720;-76
2020/12/19 09:24:34;;;;;;;39.53;26.60;;;;;;;-0.03;100.00;101459.94;3487401;83;30164;-75
2020/12/19 09:29:35;;;;;;;48.83;29.47;;;;;;;-0.12;100.00;101478.09;3488974;83;25969;-75
2020/12/19 09:34:36;;;;;;;190.33;41.60;;;;;;;-0.08;100.00;101459.84;3538528;82;31636;-78
2020/12/19 09:39:37;;;;;;;468.53;103.13;;;;;;;0.05;100.00;101462.30;3467072;83;31120;-75
2020/12/19 09:44:38;;;;;;;206.60;61.87;;;;;;;0.01;100.00;101468.31;3538668;82;31073;-77
2020/12/19 09:49:39;;;;;;;305.23;80.50;;;;;;;0.17;100.00;101473.87;3514024;84;25895;-76
2020/12/19 09:54:40;;;;;;;56.83;33.00;;;;;;;0.42;100.00;101483.12;3516097;84;26627;-76
2020/12/19 09:59:43;;;;;;;445.75;80.53;;;;;;;0.45;100.00;101478.81;3517203;83;26011;-75
2020/12/19 16:13:29;;;;;;;60.97;31.70;;;;;;;0.88;100.00;101450.26;3661732;79;25739;-75
2020/12/19 16:18:30;;;;;;;57.20;30.83;;;;;;;0.78;100.00;101444.84;3612483;82;27648;-69
2020/12/19 16:23:31;;;;;;;53.13;28.63;;;;;;;0.78;100.00;101449.22;3586606;82;27678;-69
2020/12/19 16:28:32;;;;;;;43.23;26.17;;;;;;;0.83;100.00;101453.24;3613644;81;26484;-76
2020/12/19 16:33:33;;;;;;;41.90;26.73;;;;;;;0.88;100.00;101443.25;3567887;81;25984;-74
2020/12/19 16:38:35;;;;;;;39.13;24.73;;;;;;;0.94;100.00;101441.17;3554437;83;25780;-76
2020/12/19 16:43:36;;;;;;;41.17;25.30;;;;;;;0.98;100.00;101439.06;3538240;83;25973;-76
2020/12/19 16:48:37;;;;;;;43.07;28.20;;;;;;;0.99;100.00;101447.81;3538713;83;25831;-77
2020/12/19 16:53:38;;;;;;;50.20;29.10;;;;;;;0.98;100.00;101449.56;3549865;82;26492;-76
2020/12/19 16:58:39;;;;;;;47.13;29.40;;;;;;;1.06;100.00;101453.17;3543274;83;25763;-76
2020/12/19 17:03:40;;;;;;;47.67;28.60;;;;;;;1.07;100.00;101454.95;3550463;83;26142;-77
2020/12/19 17:08:40;;;;;;;46.60;30.53;;;;;;;1.04;100.00;101452.29;3540180;81;25965;-77
2020/12/19 17:13:41;;;;;;;49.40;29.43;;;;;;;0.98;100.00;101446.94;3504982;84;33091;-76
2020/12/19 17:18:42;;;;;;;40.37;27.33;;;;;;;0.99;100.00;101448.68;3508836;83;26100;-69
2020/12/19 17:23:43;;;;;;;47.70;27.67;;;;;;;1.11;100.00;101442.34;3506374;84;26486;-70
2020/12/19 17:28:47;;;;;;;43.95;25.62;;;;;;;1.13;100.00;101438.86;3507139;84;26214;-76
2020/12/19 17:33:48;;;;;;;44.33;27.73;;;;;;;1.07;100.00;101444.88;3507138;83;32651;-77
2020/12/19 17:38:50;;;;;;;43.37;26.40;;;;;;;1.06;100.00;101438.73;3508958;83;25901;-69
2020/12/19 17:43:53;;;;;;;46.10;27.30;;;;;;;1.04;100.00;101443.09;3508244;84;32589;-77
2020/12/19 17:48:55;;;;;;;52.50;29.70;;;;;;;1.11;100.00;101445.38;3508262;84;33137;-78
2020/12/19 17:53:58;;;;;;;49.97;30.43;;;;;;;1.08;100.00;101443.59;3507589;84;25781;-70
2020/12/19 17:58:59;;;;;;;48.37;29.90;;;;;;;1.13;100.00;101448.05;3512101;83;32994;-75
2020/12/19 18:04:00;;;;;;;45.67;29.07;;;;;;;1.18;100.00;101438.05;3507779;84;33152;-76
2020/12/19 18:09:01;;;;;;;44.23;28.87;;;;;;;1.22;100.00;101438.98;3507078;84;26297;-70
2020/12/19 18:14:02;;;;;;;50.60;30.07;;;;;;;1.30;100.00;101433.41;3508330;83;25813;-76
2020/12/19 18:19:03;;;;;;;57.93;32.60;;;;;;;1.26;100.00;101435.11;3506580;84;25801;-70
2020/12/19 18:24:05;;;;;;;50.87;30.17;;;;;;;1.21;100.00;101426.28;3523636;84;25920;-77
2020/12/19 18:29:06;;;;;;;49.10;30.13;;;;;;;1.21;100.00;101434.17;3524947;84;25845;-74
2020/12/19 18:34:07;;;;;;;48.60;31.50;;;;;;;1.25;100.00;101428.09;3523697;84;25830;-76
2020/12/19 18:39:08;;;;;;;55.43;32.37;;;;;;;1.27;100.00;101432.04;3524804;84;25881;-77
2020/12/19 18:44:10;;;;;;;54.20;30.70;;;;;;;1.30;100.00;101433.41;3524699;84;25900;-76
2020/12/19 18:49:11;;;;;;;51.70;29.67;;;;;;;1.30;100.00;101442.61;3524862;84;25888;-75
2020/12/19 18:54:12;;;;;;;53.67;30.63;;;;;;;1.33;100.00;101432.57;3524854;84;25757;-77
2020/12/19 18:59:13;;;;;;;51.67;30.73;;;;;;;1.34;100.00;101436.97;3524672;84;25829;-77
2020/12/19 19:04:14;;;;;;;60.30;35.23;;;;;;;1.34;100.00;101431.72;3524634;84;25779;-77
2020/12/19 19:09:16;;;;;;;52.93;31.37;;;;;;;1.33;100.00;101430.84;3524667;84;25791;-76
2020/12/19 19:14:17;;;;;;;49.57;30.60;;;;;;;1.42;100.00;101429.64;3540716;83;25799;-77
2020/12/19 19:19:18;;;;;;;53.47;31.90;;;;;;;1.52;100.00;101433.28;3541380;83;32490;-77
2020/12/19 19:24:20;;;;;;;54.80;34.37;;;;;;;1.53;100.00;101431.11;3541212;83;25795;-71
2020/12/19 19:29:22;;;;;;;51.60;33.50;;;;;;;1.53;100.00;101435.49;3540932;83;25772;-77
2020/12/19 19:34:24;;;;;;;48.63;30.47;;;;;;;1.57;100.00;101443.86;3541805;82;25883;-77
2020/12/19 19:39:27;;;;;;;50.60;32.83;;;;;;;1.60;100.00;101445.23;3530260;82;27759;-75
2020/12/19 19:44:30;;;;;;;50.13;32.10;;;;;;;1.59;100.00;101442.14;3529853;82;30197;-70
2020/12/19 19:49:31;;;;;;;52.87;32.43;;;;;;;1.54;100.00;101438.58;3516552;83;26585;-75
2020/12/19 19:54:32;;;;;;;48.20;30.13;;;;;;;1.52;100.00;101445.11;3519403;83;32730;-77
2020/12/19 19:59:33;;;;;;;50.87;31.20;;;;;;;1.52;100.00;101453.44;3515859;83;27164;-77
2020/12/19 20:04:34;;;;;;;43.53;28.30;;;;;;;1.65;100.00;101450.11;3518930;82;26248;-76
2020/12/19 20:09:35;;;;;;;43.57;28.30;;;;;;;1.57;100.00;101446.48;3529320;82;25803;-75
2020/12/19 20:14:37;;;;;;;43.23;28.90;;;;;;;1.53;100.00;101455.20;3532048;83;25811;-74
2020/12/19 20:19:38;;;;;;;42.77;30.30;;;;;;;1.55;100.00;101448.23;3523108;82;26244;-76
2020/12/19 20:24:39;;;;;;;45.90;29.97;;;;;;;1.60;100.00;101449.17;3524670;83;25752;-74
2020/12/19 20:29:40;;;;;;;46.33;30.87;;;;;;;1.64;100.00;101456.23;3475673;83;212432;-76
2020/12/19 20:34:41;;;;;;;43.13;30.03;;;;;;;1.63;100.00;101458.40;3427770;86;26268;-76
2020/12/19 20:39:45;;;;;;;44.23;29.53;;;;;;;1.61;100.00;101450.05;3434870;86;26250;-71
2020/12/19 20:44:48;;;;;;;43.53;29.20;;;;;;;1.70;100.00;101454.99;3434742;86;28349;-77
2020/12/19 20:49:49;;;;;;;47.20;31.00;;;;;;;1.67;100.00;101452.34;3434734;86;32592;-73
2020/12/19 20:54:53;;;;;;;50.00;30.90;;;;;;;1.71;100.00;101456.77;3434826;86;27908;-75
2020/12/19 20:59:58;;;;;;;45.57;29.80;;;;;;;1.66;100.00;101458.45;3434977;86;32704;-76
2020/12/19 21:04:58;;;;;;;44.47;29.80;;;;;;;1.73;100.00;101447.16;3424227;86;25829;-79
2020/12/19 21:10:01;;;;;;;47.93;33.77;;;;;;;1.73;100.00;101447.16;3430949;86;26936;-76
2020/12/19 21:15:04;;;;;;;45.07;30.37;;;;;;;1.72;100.00;101444.08;3401705;86;25871;-76
2020/12/19 21:20:06;;;;;;;44.97;29.40;;;;;;;1.62;100.00;101450.50;3401249;86;32720;-71
2020/12/19 21:25:07;;;;;;;40.57;27.20;;;;;;;1.69;100.00;101451.91;3398606;86;32539;-76
2020/12/19 21:30:10;;;;;;;44.37;28.30;;;;;;;1.71;100.00;101455.89;3397553;86;33255;-76
2020/12/19 21:35:14;;;;;;;40.37;27.43;;;;;;;1.69;100.00;101458.48;3400455;86;33015;-78
2020/12/19 21:40:18;;;;;;;38.10;26.67;;;;;;;1.70;100.00;101461.56;3400977;87;32655;-74
2020/12/19 21:45:21;;;;;;;41.73;28.13;;;;;;;1.66;100.00;101461.08;3388076;86;25801;-74
2020/12/19 21:50:22;;;;;;;39.30;27.83;;;;;;;1.77;100.00;101449.40;3384044;87;32530;-75
2020/12/19 21:55:23;;;;;;;41.90;28.87;;;;;;;1.75;100.00;101457.69;3400245;87;32515;-70
2020/12/19 22:00:25;;;;;;;43.27;29.77;;;;;;;1.69;100.00;101462.42;3395828;87;27799;-75
2020/12/19 22:05:26;;;;;;;39.43;25.93;;;;;;;1.68;100.00;101456.73;3390606;86;29789;-74
2020/12/19 22:10:27;;;;;;;44.67;29.17;;;;;;;1.66;100.00;101455.83;3394170;86;26852;-74
2020/12/19 22:15:28;;;;;;;41.87;29.17;;;;;;;1.64;100.00;101465.43;3409756;86;26797;-73
2020/12/19 22:20:29;;;;;;;40.83;28.50;;;;;;;1.69;100.00;101464.19;3424254;86;25798;-75
2020/12/19 22:25:31;;;;;;;43.27;29.47;;;;;;;1.80;100.00;101465.20;3432488;86;25916;-75
2020/12/19 22:30:32;;;;;;;37.40;25.47;;;;;;;1.86;100.00;101461.77;3423323;86;25920;-72
2020/12/19 22:35:33;;;;;;;46.20;29.63;;;;;;;1.78;100.00;101470.89;3398910;85;25896;-73
2020/12/19 22:40:34;;;;;;;40.40;28.90;;;;;;;1.73;100.00;101468.20;3393149;86;25850;-75
2020/12/19 22:45:35;;;;;;;40.07;28.93;;;;;;;1.85;100.00;101461.32;3428432;86;25874;-70
2020/12/19 22:50:37;;;;;;;40.43;28.83;;;;;;;1.85;100.00;101463.95;3427132;86;26418;-73
2020/12/19 22:55:38;;;;;;;40.13;29.17;;;;;;;1.80;100.00;101467.83;3427821;86;26214;-70
2020/12/19 23:00:44;;;;;;;39.40;28.27;;;;;;;1.74;100.00;101476.53;3393239;86;25799;-70
2020/12/19 23:05:45;;;;;;;41.97;28.87;;;;;;;1.72;100.00;101473.00;3395020;86;33430;-73
2020/12/19 23:10:46;;;;;;;40.53;28.27;;;;;;;1.80;100.00;101469.59;3406061;86;26508;-73
2020/12/19 23:15:49;;;;;;;43.30;30.27;;;;;;;1.87;100.00;101474.94;3427664;86;26931;-74
2020/12/19 23:20:50;;;;;;;42.33;29.47;;;;;;;1.85;100.00;101477.09;3433658;86;32724;-74
2020/12/19 23:25:51;;;;;;;43.83;31.13;;;;;;;1.81;100.00;101476.17;3411496;86;26858;-74
2020/12/19 23:30:53;;;;;;;43.80;31.00;;;;;;;1.80;100.00;101474.84;3420266;86;26846;-70
2020/12/19 23:35:54;;;;;;;46.07;30.43;;;;;;;1.73;100.00;101476.08;3433755;86;28841;-76
2020/12/19 23:40:55;;;;;;;38.90;28.60;;;;;;;1.76;100.00;101471.29;3434204;85;27252;-75
2020/12/19 23:45:56;;;;;;;41.87;29.27;;;;;;;1.83;100.00;101472.27;3434309;86;25728;-75
2020/12/19 23:50:57;;;;;;;41.80;29.43;;;;;;;1.83;100.00;101465.70;3434205;86;25741;-75
2020/12/19 23:55:58;;;;;;;44.23;30.23;;;;;;;1.84;100.00;101478.86;3434370;86;25811;-70
